createdAt,value
2018-11-26T00:02:12.553Z,79.70
2018-11-26T00:04:41.846Z,79.55
2018-11-26T00:07:10.809Z,79.75
2018-11-26T00:09:39.918Z,79.75
2018-11-26T00:12:08.868Z,79.53
2018-11-26T00:14:38.216Z,79.57
2018-11-26T00:17:07.286Z,79.78
2018-11-26T00:19:36.045Z,79.75
2018-11-26T00:22:05.111Z,79.80
2018-11-26T00:24:34.286Z,79.52
2018-11-26T00:27:03.028Z,79.76
2018-11-26T00:29:31.962Z,80.18
2018-11-26T00:32:00.738Z,79.95
2018-11-26T00:34:29.682Z,80.41
2018-11-26T00:36:58.752Z,80.60
2018-11-26T00:39:27.427Z,80.82
2018-11-26T00:41:56.308Z,80.22
2018-11-26T00:44:25.386Z,80.70
2018-11-26T00:46:54.382Z,80.28
2018-11-26T00:49:23.714Z,80.63
2018-11-26T00:51:52.799Z,80.44
2018-11-26T00:54:21.803Z,80.56
2018-11-26T00:56:50.488Z,81.30
2018-11-26T00:59:19.366Z,80.80
2018-11-26T01:01:48.255Z,81.23
2018-11-26T01:04:17.339Z,81.70
2018-11-26T01:06:46.301Z,81.58
2018-11-26T01:09:15.382Z,80.75
2018-11-26T01:11:44.129Z,81.33
2018-11-26T01:14:12.873Z,80.80
2018-11-26T01:16:41.789Z,81.31
2018-11-26T01:19:10.463Z,82.39
2018-11-26T01:21:39.465Z,81.77
2018-11-26T01:24:08.384Z,81.01
2018-11-26T01:26:37.519Z,81.96
2018-11-26T01:29:07.123Z,81.90
2018-11-26T01:31:36.430Z,81.40
2018-11-26T01:34:05.726Z,81.61
2018-11-26T01:36:34.795Z,81.50
2018-11-26T01:39:04.000Z,81.20
2018-11-26T01:41:33.041Z,81.62
2018-11-26T01:44:01.891Z,81.50
2018-11-26T01:46:30.904Z,82.58
2018-11-26T01:49:00.094Z,82.44
2018-11-26T01:51:29.197Z,82.91
2018-11-26T01:53:57.908Z,82.64
2018-11-26T01:56:26.727Z,82.53
2018-11-26T01:58:57.580Z,82.97
2018-11-26T02:01:26.751Z,82.99
2018-11-26T02:03:55.737Z,83.35
2018-11-26T02:06:24.461Z,83.43
2018-11-26T02:08:53.542Z,84.11
2018-11-26T02:11:22.335Z,83.79
2018-11-26T02:13:51.633Z,83.80
2018-11-26T02:16:20.815Z,83.65
2018-11-26T02:18:49.860Z,83.50
2018-11-26T02:21:19.031Z,84.03
2018-11-26T02:23:48.447Z,84.03
2018-11-26T02:26:17.857Z,83.84
2018-11-26T02:28:46.726Z,83.50
2018-11-26T02:31:15.396Z,84.12
2018-11-26T02:33:44.331Z,84.54
2018-11-26T02:36:13.006Z,84.45
2018-11-26T02:38:42.070Z,84.58
2018-11-26T02:41:11.227Z,84.42
2018-11-26T02:43:40.019Z,84.32
2018-11-26T02:46:09.002Z,84.55
2018-11-26T02:48:37.693Z,84.48
2018-11-26T02:51:06.486Z,84.50
2018-11-26T02:53:35.552Z,84.79
2018-11-26T02:56:04.194Z,84.46
2018-11-26T02:58:32.929Z,84.51
2018-11-26T03:01:01.792Z,84.42
2018-11-26T03:03:30.477Z,84.41
2018-11-26T03:05:59.629Z,85.21
2018-11-26T03:08:28.565Z,84.54
2018-11-26T03:10:57.864Z,84.90
2018-11-26T03:13:26.722Z,85.11
2018-11-26T03:15:55.942Z,84.37
2018-11-26T03:18:24.842Z,84.55
2018-11-26T03:20:53.820Z,85.17
2018-11-26T03:23:22.672Z,85.19
2018-11-26T03:25:51.661Z,85.11
2018-11-26T03:28:20.665Z,84.58
2018-11-26T03:30:49.934Z,84.34
2018-11-26T03:33:18.786Z,84.75
2018-11-26T03:35:47.735Z,84.69
2018-11-26T03:38:21.785Z,84.99
2018-11-26T03:40:50.790Z,85.07
2018-11-26T03:43:19.811Z,85.14
2018-11-26T03:45:48.643Z,85.14
2018-11-26T03:48:17.664Z,84.95
2018-11-26T03:50:46.798Z,85.10
2018-11-26T03:53:16.092Z,85.13
2018-11-26T03:55:44.864Z,85.18
2018-11-26T03:58:13.640Z,85.41
2018-11-26T04:00:42.743Z,85.58
2018-11-26T04:03:11.750Z,85.22
2018-11-26T04:05:40.694Z,84.97
2018-11-26T04:08:09.966Z,85.56
2018-11-26T04:10:38.616Z,85.51
2018-11-26T04:13:07.433Z,85.25
2018-11-26T04:15:36.373Z,85.34
2018-11-26T04:18:05.428Z,85.96
2018-11-26T04:20:34.442Z,85.38
2018-11-26T04:23:04.030Z,85.45
2018-11-26T04:25:32.978Z,85.50
2018-11-26T04:28:02.174Z,85.34
2018-11-26T04:30:31.322Z,85.41
2018-11-26T04:33:00.513Z,85.43
2018-11-26T04:35:29.798Z,85.14
2018-11-26T04:37:58.959Z,85.13
2018-11-26T04:40:27.944Z,85.22
2018-11-26T04:42:57.105Z,85.11
2018-11-26T04:45:26.655Z,85.42
2018-11-26T04:47:56.023Z,85.31
2018-11-26T04:50:25.077Z,85.83
2018-11-26T04:52:53.821Z,85.90
2018-11-26T04:55:23.041Z,85.52
2018-11-26T04:57:52.489Z,85.18
2018-11-26T05:00:21.379Z,85.27
2018-11-26T05:02:50.498Z,85.54
2018-11-26T05:05:20.253Z,85.46
2018-11-26T05:07:49.172Z,85.47
2018-11-26T05:10:19.066Z,85.60
2018-11-26T05:12:48.243Z,85.50
2018-11-26T05:15:17.099Z,85.48
2018-11-26T05:17:46.527Z,85.61
2018-11-26T05:20:16.021Z,85.27
2018-11-26T05:22:45.844Z,85.36
2018-11-26T05:25:14.797Z,85.46
2018-11-26T05:27:44.380Z,86.17
2018-11-26T05:30:14.319Z,86.00
2018-11-26T05:32:43.788Z,85.77
2018-11-26T05:35:13.461Z,86.04
2018-11-26T05:37:42.564Z,85.69
2018-11-26T05:40:12.595Z,85.86
2018-11-26T05:42:41.744Z,85.65
2018-11-26T05:45:16.017Z,85.82
2018-11-26T05:47:45.942Z,85.78
2018-11-26T05:50:15.677Z,85.95
2018-11-26T05:52:45.116Z,85.61
2018-11-26T05:55:16.455Z,85.77
2018-11-26T05:57:46.379Z,85.78
2018-11-26T06:00:34.493Z,85.64
2018-11-26T06:03:04.163Z,85.69
2018-11-26T06:05:33.459Z,85.54
2018-11-26T06:08:02.214Z,85.52
2018-11-26T06:10:31.688Z,85.53
2018-11-26T06:13:00.501Z,85.27
2018-11-26T06:15:29.605Z,85.01
2018-11-26T06:17:58.756Z,85.07
2018-11-26T06:22:01.657Z,84.82
2018-11-26T06:24:31.126Z,84.88
2018-11-26T06:27:00.692Z,84.70
2018-11-26T06:29:29.770Z,83.93
2018-11-26T06:31:58.572Z,83.70
2018-11-26T06:34:27.851Z,83.84
2018-11-26T06:36:56.920Z,83.77
2018-11-26T06:39:26.197Z,83.55
2018-11-26T06:41:55.275Z,83.25
2018-11-26T06:44:24.295Z,82.77
2018-11-26T06:46:53.553Z,82.75
2018-11-26T06:49:22.736Z,82.25
2018-11-26T06:51:52.305Z,82.30
2018-11-26T06:54:21.556Z,82.17
2018-11-26T06:56:50.795Z,81.82
2018-11-26T06:59:20.249Z,82.37
2018-11-26T07:01:49.517Z,81.82
2018-11-26T07:04:18.923Z,81.45
2018-11-26T07:06:47.977Z,81.21
2018-11-26T07:09:16.806Z,81.20
2018-11-26T07:11:46.081Z,81.71
2018-11-26T07:14:15.357Z,81.44
2018-11-26T07:16:44.456Z,81.26
2018-11-26T07:19:13.432Z,81.03
2018-11-26T07:21:42.629Z,81.53
2018-11-26T07:24:12.084Z,81.04
2018-11-26T07:26:41.077Z,81.61
2018-11-26T07:29:10.266Z,80.96
2018-11-26T07:31:39.683Z,81.32
2018-11-26T07:34:08.927Z,81.68
2018-11-26T07:36:37.713Z,81.52
2018-11-26T07:39:09.027Z,81.38
2018-11-26T07:41:37.930Z,81.76
2018-11-26T07:44:09.266Z,81.15
2018-11-26T07:46:38.415Z,81.40
2018-11-26T07:49:07.687Z,81.69
2018-11-26T07:51:36.520Z,82.07
2018-11-26T07:54:05.787Z,81.58
2018-11-26T07:56:35.049Z,81.87
2018-11-26T07:59:04.214Z,81.49
2018-11-26T08:01:33.455Z,81.69
2018-11-26T08:04:02.616Z,81.09
2018-11-26T08:06:31.520Z,80.88
2018-11-26T08:09:00.532Z,81.29
2018-11-26T08:11:29.674Z,81.20
2018-11-26T08:13:58.640Z,80.93
2018-11-26T08:16:27.759Z,81.17
2018-11-26T08:18:56.634Z,81.32
2018-11-26T08:21:25.805Z,81.42
2018-11-26T08:23:54.992Z,80.56
2018-11-26T08:26:23.899Z,80.50
2018-11-26T08:28:52.663Z,80.62
2018-11-26T08:31:21.554Z,80.52
2018-11-26T08:33:50.588Z,80.10
2018-11-26T08:36:24.899Z,80.01
2018-11-26T08:38:59.113Z,79.92
2018-11-26T08:41:33.234Z,79.84
2018-11-26T08:44:09.588Z,80.08
2018-11-26T08:46:41.480Z,79.93
2018-11-26T08:49:14.868Z,79.95
2018-11-26T08:51:43.843Z,79.77
2018-11-26T08:54:13.154Z,79.63
2018-11-26T08:56:42.215Z,79.58
2018-11-26T08:59:11.453Z,79.24
2018-11-26T09:01:42.604Z,79.14
2018-11-26T09:04:15.852Z,79.02
2018-11-26T09:06:44.918Z,78.62
2018-11-26T09:09:13.960Z,78.55
2018-11-26T09:11:43.289Z,78.43
2018-11-26T09:14:12.154Z,78.27
2018-11-26T09:16:41.601Z,78.43
2018-11-26T09:19:10.938Z,78.77
2018-11-26T09:21:40.033Z,78.72
2018-11-26T09:24:09.055Z,78.53
2018-11-26T09:26:38.114Z,78.28
2018-11-26T09:29:07.215Z,78.11
2018-11-26T09:31:36.418Z,78.17
2018-11-26T09:34:06.260Z,78.22
2018-11-26T09:36:35.355Z,78.25
2018-11-26T09:39:05.006Z,78.00
2018-11-26T09:41:34.394Z,78.62
2018-11-26T09:44:03.529Z,78.50
2018-11-26T09:46:32.800Z,77.98
2018-11-26T09:49:01.501Z,78.70
2018-11-26T09:51:30.528Z,78.19
2018-11-26T09:53:59.646Z,77.67
2018-11-26T09:56:28.480Z,77.81
2018-11-26T09:58:57.456Z,77.70
2018-11-26T10:01:26.360Z,77.12
2018-11-26T10:03:55.948Z,77.04
2018-11-26T10:06:24.892Z,76.91
2018-11-26T10:08:54.300Z,76.65
2018-11-26T10:11:23.456Z,76.51
2018-11-26T10:13:52.915Z,76.24
2018-11-26T10:16:21.736Z,75.95
2018-11-26T10:18:50.800Z,75.99
2018-11-26T10:21:20.102Z,76.51
2018-11-26T10:23:49.635Z,75.83
2018-11-26T10:26:18.867Z,76.12
2018-11-26T10:28:48.339Z,75.92
2018-11-26T10:31:17.416Z,76.19
2018-11-26T10:33:46.294Z,76.57
2018-11-26T10:36:15.309Z,75.89
2018-11-26T10:38:44.266Z,76.25
2018-11-26T10:41:12.889Z,76.33
2018-11-26T10:43:42.127Z,75.91
2018-11-26T10:46:10.959Z,76.62
2018-11-26T10:48:39.932Z,76.52
2018-11-26T10:51:09.212Z,76.19
2018-11-26T10:53:38.073Z,76.26
2018-11-26T10:56:07.522Z,75.67
2018-11-26T10:58:36.596Z,75.95
2018-11-26T11:03:12.813Z,75.46
2018-11-26T11:05:41.807Z,74.76
2018-11-26T11:08:10.949Z,74.04
2018-11-26T11:10:40.194Z,74.63
2018-11-26T11:13:09.501Z,73.86
2018-11-26T11:15:38.450Z,73.99
2018-11-26T11:18:08.272Z,74.21
2018-11-26T11:20:37.308Z,74.17
2018-11-26T11:23:06.724Z,74.07
2018-11-26T11:25:35.692Z,73.51
2018-11-26T11:28:04.793Z,73.19
2018-11-26T11:30:33.906Z,73.44
2018-11-26T11:35:30.944Z,73.03
2018-11-26T11:37:59.955Z,73.13
2018-11-26T11:40:31.537Z,72.65
2018-11-26T11:43:01.207Z,72.46
2018-11-26T11:45:31.043Z,72.56
2018-11-26T11:48:00.174Z,72.18
2018-11-26T11:50:29.015Z,71.72
2018-11-26T11:52:57.959Z,72.15
2018-11-26T11:55:27.312Z,71.30
2018-11-26T11:57:56.608Z,71.36
2018-11-26T12:00:37.411Z,71.43
2018-11-26T12:03:15.282Z,70.83
2018-11-26T12:05:43.952Z,70.54
2018-11-26T12:08:13.170Z,70.24
2018-11-26T12:10:42.318Z,70.44
2018-11-26T12:13:12.486Z,70.00
2018-11-26T12:15:43.752Z,69.54
2018-11-26T12:18:13.062Z,69.62
2018-11-26T12:20:42.299Z,69.15
2018-11-26T12:23:11.490Z,68.55
2018-11-26T12:25:40.537Z,68.43
2018-11-26T12:28:09.399Z,68.98
2018-11-26T12:30:39.983Z,68.85
2018-11-26T12:33:08.967Z,68.94
2018-11-26T12:35:38.460Z,69.18
2018-11-26T12:38:07.350Z,69.54
2018-11-26T12:40:36.366Z,69.86
2018-11-26T12:43:06.421Z,69.71
2018-11-26T12:45:35.664Z,69.98
2018-11-26T12:48:04.815Z,70.93
2018-11-26T12:50:34.202Z,70.73
2018-11-26T12:53:03.290Z,71.34
2018-11-26T12:55:32.168Z,71.34
2018-11-26T12:58:01.567Z,71.50
2018-11-26T13:00:30.847Z,71.70
2018-11-26T13:03:00.945Z,71.68
2018-11-26T13:05:29.857Z,72.39
2018-11-26T13:07:59.157Z,72.41
2018-11-26T13:10:27.866Z,72.27
2018-11-26T13:12:56.666Z,72.34
2018-11-26T13:15:26.852Z,72.41
2018-11-26T13:17:55.584Z,72.88
2018-11-26T13:20:29.929Z,72.69
2018-11-26T13:22:58.826Z,73.02
2018-11-26T13:25:30.009Z,72.59
2018-11-26T13:28:00.829Z,73.25
2018-11-26T13:30:31.479Z,73.14
2018-11-26T13:33:01.550Z,73.13
2018-11-26T13:35:30.789Z,73.29
2018-11-26T13:38:00.149Z,73.58
2018-11-26T13:40:29.251Z,73.88
2018-11-26T13:42:58.151Z,73.96
2018-11-26T13:45:37.728Z,73.58
2018-11-26T13:48:08.475Z,73.90
2018-11-26T13:50:38.848Z,73.63
2018-11-26T13:53:07.751Z,73.75
2018-11-26T13:55:36.550Z,74.01
2018-11-26T13:58:05.605Z,73.92
2018-11-26T14:00:34.321Z,73.98
2018-11-26T14:03:03.137Z,74.32
2018-11-26T14:05:32.359Z,74.16
2018-11-26T14:08:01.103Z,74.00
2018-11-26T14:10:29.780Z,73.92
2018-11-26T14:13:02.884Z,74.55
2018-11-26T14:15:31.590Z,74.38
2018-11-26T14:18:00.571Z,74.56
2018-11-26T14:20:29.408Z,74.51
2018-11-26T14:22:58.227Z,74.52
2018-11-26T14:25:27.334Z,74.32
2018-11-26T14:27:56.187Z,74.41
2018-11-26T14:30:27.520Z,74.46
2018-11-26T14:32:56.795Z,74.20
2018-11-26T14:35:25.635Z,74.37
2018-11-26T14:38:03.851Z,74.67
2018-11-26T14:40:36.545Z,74.81
2018-11-26T14:43:05.910Z,74.93
2018-11-26T14:45:35.029Z,74.87
2018-11-26T14:48:04.010Z,75.27
2018-11-26T14:50:33.158Z,75.43
2018-11-26T14:53:05.194Z,75.58
2018-11-26T14:55:35.719Z,75.29
2018-11-26T14:58:05.153Z,75.52
2018-11-26T15:00:34.832Z,75.35
2018-11-26T15:03:03.580Z,75.16
2018-11-26T15:05:32.498Z,75.19
2018-11-26T15:08:01.621Z,75.33
2018-11-26T15:10:30.512Z,75.34
2018-11-26T15:12:59.595Z,75.67
2018-11-26T15:15:28.574Z,75.70
2018-11-26T15:17:57.515Z,75.73
2018-11-26T15:20:28.975Z,75.48
2018-11-26T15:22:59.982Z,75.41
2018-11-26T15:25:29.944Z,75.30
2018-11-26T15:28:05.055Z,75.34
2018-11-26T15:30:33.963Z,75.19
2018-11-26T15:33:03.056Z,75.25
2018-11-26T15:35:32.025Z,75.39
2018-11-26T15:38:01.322Z,75.36
2018-11-26T15:40:30.216Z,75.61
2018-11-26T15:42:59.005Z,75.74
2018-11-26T15:45:29.023Z,75.65
2018-11-26T15:47:59.224Z,75.61
2018-11-26T15:50:28.678Z,75.87
2018-11-26T15:52:58.060Z,75.74
2018-11-26T15:56:37.827Z,76.04
2018-11-26T15:59:06.830Z,76.16
2018-11-26T16:01:36.215Z,76.11
2018-11-26T16:04:05.020Z,76.09
2018-11-26T16:06:33.770Z,76.28
2018-11-26T16:09:03.670Z,76.29
2018-11-26T16:11:33.009Z,76.00
2018-11-26T16:14:02.515Z,76.06
2018-11-26T16:16:31.729Z,76.15
2018-11-26T16:19:00.569Z,76.38
2018-11-26T16:21:29.687Z,76.31
2018-11-26T16:23:58.548Z,76.22
2018-11-26T16:26:27.626Z,76.31
2018-11-26T16:28:56.813Z,76.05
2018-11-26T16:31:25.719Z,75.95
2018-11-26T16:33:54.783Z,75.87
2018-11-26T16:36:23.494Z,75.73
2018-11-26T16:38:52.344Z,75.54
2018-11-26T16:41:21.414Z,75.66
2018-11-26T16:43:50.649Z,75.59
2018-11-26T16:46:20.569Z,75.55
2018-11-26T16:48:49.918Z,75.39
2018-11-26T16:51:19.704Z,75.10
2018-11-26T16:53:48.676Z,75.27
2018-11-26T16:56:17.881Z,75.17
2018-11-26T16:58:46.903Z,74.98
2018-11-26T17:01:15.668Z,74.81
2018-11-26T17:03:45.054Z,74.68
2018-11-26T17:06:14.414Z,74.86
2018-11-26T17:08:43.736Z,74.70
2018-11-26T17:11:13.037Z,74.77
2018-11-26T17:13:42.338Z,74.86
2018-11-26T17:16:11.294Z,74.92
2018-11-26T17:18:39.935Z,74.99
2018-11-26T17:21:08.763Z,74.38
2018-11-26T17:23:37.687Z,74.16
2018-11-26T17:26:07.142Z,73.90
2018-11-26T17:28:36.040Z,73.95
2018-11-26T17:31:05.256Z,73.58
2018-11-26T17:33:33.994Z,73.30
2018-11-26T17:36:02.916Z,73.23
2018-11-26T17:38:31.708Z,73.10
2018-11-26T17:41:00.921Z,73.03
2018-11-26T17:43:29.807Z,73.05
2018-11-26T17:45:58.905Z,73.03
2018-11-26T17:48:28.439Z,73.14
2018-11-26T17:50:57.603Z,73.41
2018-11-26T17:53:26.444Z,73.60
2018-11-26T17:55:56.639Z,73.40
2018-11-26T17:58:28.417Z,73.84
2018-11-26T18:01:11.151Z,73.60
2018-11-26T18:03:40.002Z,73.39
2018-11-26T18:06:09.308Z,73.37
2018-11-26T18:08:38.600Z,73.42
2018-11-26T18:11:08.477Z,73.52
2018-11-26T18:13:37.402Z,73.59
2018-11-26T18:16:06.971Z,73.24
2018-11-26T18:18:36.105Z,73.53
2018-11-26T18:21:05.450Z,73.40
2018-11-26T18:23:34.892Z,73.60
2018-11-26T18:26:04.221Z,73.43
2018-11-26T18:28:33.622Z,73.27
2018-11-26T18:31:02.771Z,73.01
2018-11-26T18:33:32.226Z,73.28
2018-11-26T18:36:01.535Z,73.22
2018-11-26T18:38:30.491Z,73.23
2018-11-26T18:41:00.125Z,73.22
2018-11-26T18:43:29.785Z,73.42
2018-11-26T18:45:59.224Z,73.57
2018-11-26T18:48:28.633Z,73.46
2018-11-26T18:50:58.061Z,73.78
2018-11-26T18:53:27.134Z,73.94
2018-11-26T18:55:56.575Z,73.91
2018-11-26T18:58:25.656Z,73.94
2018-11-26T19:00:56.500Z,73.89
2018-11-26T19:03:25.468Z,73.94
2018-11-26T19:05:55.309Z,73.97
2018-11-26T19:08:24.512Z,73.88
2018-11-26T19:10:56.606Z,74.16
2018-11-26T19:13:32.339Z,74.10
2018-11-26T19:16:08.163Z,74.10
2018-11-26T19:18:37.329Z,73.93
2018-11-26T19:21:07.342Z,74.29
2018-11-26T19:23:36.183Z,74.09
2018-11-26T19:26:05.447Z,74.18
2018-11-26T19:28:34.596Z,74.23
2018-11-26T19:31:03.789Z,74.17
2018-11-26T19:33:32.795Z,74.31
2018-11-26T19:36:01.945Z,74.43
2018-11-26T19:38:30.668Z,74.52
2018-11-26T19:40:59.592Z,74.45
2018-11-26T19:43:28.503Z,74.43
2018-11-26T19:45:57.296Z,74.76
2018-11-26T19:48:26.145Z,74.67
2018-11-26T19:50:55.229Z,74.61
2018-11-26T19:53:24.110Z,74.68
2018-11-26T19:55:53.559Z,74.83
2018-11-26T19:58:22.949Z,74.83
2018-11-26T20:00:52.101Z,74.78
2018-11-26T20:03:25.027Z,75.05
2018-11-26T20:05:57.845Z,74.86
2018-11-26T20:08:27.318Z,75.65
2018-11-26T20:10:56.857Z,75.16
2018-11-26T20:13:26.588Z,74.92
2018-11-26T20:15:57.254Z,75.02
2018-11-26T20:18:28.634Z,74.94
2018-11-26T20:20:57.056Z,75.14
2018-11-26T20:23:26.054Z,75.09
2018-11-26T20:25:54.941Z,75.40
2018-11-26T20:28:23.892Z,75.09
2018-11-26T20:30:53.354Z,75.27
2018-11-26T20:33:23.013Z,75.41
2018-11-26T20:35:52.710Z,75.45
2018-11-26T20:38:21.860Z,75.49
2018-11-26T20:40:51.073Z,75.58
2018-11-26T20:43:20.633Z,75.71
2018-11-26T20:45:50.645Z,75.75
2018-11-26T20:48:20.126Z,75.81
2018-11-26T20:50:51.176Z,75.54
2018-11-26T20:53:23.628Z,75.76
2018-11-26T20:55:53.134Z,75.54
2018-11-26T20:58:22.568Z,75.49
2018-11-26T21:00:51.762Z,75.67
2018-11-26T21:03:21.177Z,75.38
2018-11-26T21:05:50.537Z,75.40
2018-11-26T21:08:19.834Z,75.36
2018-11-26T21:10:48.864Z,75.92
2018-11-26T21:13:17.808Z,75.87
2018-11-26T21:15:46.870Z,75.88
2018-11-26T21:18:15.608Z,75.97
2018-11-26T21:20:45.908Z,75.85
2018-11-26T21:23:17.111Z,76.06
2018-11-26T21:25:46.075Z,75.98
2018-11-26T21:28:14.928Z,75.79
2018-11-26T21:30:44.348Z,75.92
2018-11-26T21:33:13.375Z,75.63
2018-11-26T21:35:42.262Z,75.49
2018-11-26T21:38:12.017Z,75.30
2018-11-26T21:40:41.791Z,75.52
2018-11-26T21:43:11.886Z,75.60
2018-11-26T21:45:43.977Z,75.28
2018-11-26T21:48:12.775Z,75.21
2018-11-26T21:50:41.593Z,75.67
2018-11-26T21:53:10.519Z,75.52
2018-11-26T21:55:39.392Z,75.68
2018-11-26T21:58:08.166Z,75.60
2018-11-26T22:00:38.803Z,75.80
2018-11-26T22:03:09.975Z,75.68
2018-11-26T22:05:39.745Z,75.75
2018-11-26T22:08:09.567Z,75.85
2018-11-26T22:10:39.787Z,75.60
2018-11-26T22:13:11.547Z,75.62
2018-11-26T22:15:40.617Z,75.46
2018-11-26T22:30:03.166Z,73.38
2018-11-26T22:32:32.354Z,73.50
2018-11-26T22:35:01.545Z,73.67
2018-11-26T22:37:30.356Z,74.13
2018-11-26T22:39:59.511Z,74.26
2018-11-26T22:42:28.452Z,74.18
2018-11-26T22:44:57.777Z,74.31
2018-11-26T22:47:26.879Z,74.25
2018-11-26T22:49:55.845Z,74.19
2018-11-26T22:52:24.984Z,74.42
2018-11-26T22:54:54.569Z,74.46
2018-11-26T22:57:24.186Z,74.19
2018-11-26T22:59:53.130Z,74.23
2018-11-26T23:02:22.072Z,73.93
2018-11-26T23:04:50.945Z,74.01
2018-11-26T23:07:19.905Z,74.44
2018-11-26T23:09:48.723Z,74.37
2018-11-26T23:12:17.723Z,74.56
2018-11-26T23:14:46.924Z,74.74
2018-11-26T23:17:16.710Z,74.67
2018-11-26T23:28:44.351Z,75.48
2018-11-26T23:31:13.356Z,75.49
2018-11-26T23:33:42.661Z,75.63
2018-11-26T23:36:12.516Z,76.05
2018-11-26T23:38:41.542Z,76.26
2018-11-26T23:41:10.374Z,75.91
2018-11-26T23:43:39.143Z,75.90
2018-11-26T23:46:08.756Z,76.38
2018-11-26T23:48:38.146Z,76.30
2018-11-26T23:51:08.499Z,76.32
2018-11-26T23:53:37.669Z,76.39
2018-11-26T23:56:07.386Z,76.73
2018-11-26T23:58:36.705Z,76.25
